sensor_id;sensor_type;location;lat;lon;timestamp;P1;durP1;ratioP1;P2;durP2;ratioP2
79220;SDS011;72175;52.118;5.406;2023-09-19T00:00:15;2.72;;;0.40;;
79220;SDS011;72175;52.118;5.406;2023-09-19T00:02:54;4.30;;;0.90;;
79220;SDS011;72175;52.118;5.406;2023-09-19T00:05:26;3.95;;;0.40;;
79220;SDS011;72175;52.118;5.406;2023-09-19T00:07:55;4.13;;;1.33;;
79220;SDS011;72175;52.118;5.406;2023-09-19T00:10:25;2.40;;;0.77;;
79220;SDS011;72175;52.118;5.406;2023-09-19T00:12:53;1.98;;;0.32;;
79220;SDS011;72175;52.118;5.406;2023-09-19T00:15:25;2.85;;;0.75;;
79220;SDS011;72175;52.118;5.406;2023-09-19T00:17:55;2.58;;;0.40;;
79220;SDS011;72175;52.118;5.406;2023-09-19T00:20:22;2.35;;;0.30;;
79220;SDS011;72175;52.118;5.406;2023-09-19T00:22:49;3.30;;;0.77;;
79220;SDS011;72175;52.118;5.406;2023-09-19T00:25:18;3.55;;;0.75;;
79220;SDS011;72175;52.118;5.406;2023-09-19T00:27:44;2.17;;;0.40;;
79220;SDS011;72175;52.118;5.406;2023-09-19T00:30:13;3.92;;;0.73;;
79220;SDS011;72175;52.118;5.406;2023-09-19T00:32:46;2.95;;;0.60;;
79220;SDS011;72175;52.118;5.406;2023-09-19T00:35:16;2.47;;;0.50;;
79220;SDS011;72175;52.118;5.406;2023-09-19T00:37:42;1.85;;;0.20;;
79220;SDS011;72175;52.118;5.406;2023-09-19T00:40:09;3.47;;;0.75;;
79220;SDS011;72175;52.118;5.406;2023-09-19T00:42:42;2.38;;;0.30;;
79220;SDS011;72175;52.118;5.406;2023-09-19T00:45:09;2.88;;;0.28;;
79220;SDS011;72175;52.118;5.406;2023-09-19T00:47:38;2.22;;;0.30;;
79220;SDS011;72175;52.118;5.406;2023-09-19T00:50:08;2.38;;;0.35;;
79220;SDS011;72175;52.118;5.406;2023-09-19T00:52:36;3.10;;;0.40;;
79220;SDS011;72175;52.118;5.406;2023-09-19T00:55:05;3.03;;;0.40;;
79220;SDS011;72175;52.118;5.406;2023-09-19T00:57:33;3.53;;;0.38;;
79220;SDS011;72175;52.118;5.406;2023-09-19T01:00:01;2.33;;;0.50;;
79220;SDS011;72175;52.118;5.406;2023-09-19T01:02:32;1.98;;;0.20;;
79220;SDS011;72175;52.118;5.406;2023-09-19T01:05:00;2.28;;;0.30;;
79220;SDS011;72175;52.118;5.406;2023-09-19T01:07:27;3.47;;;0.30;;
79220;SDS011;72175;52.118;5.406;2023-09-19T01:10:04;3.58;;;0.73;;
79220;SDS011;72175;52.118;5.406;2023-09-19T01:20:36;2.67;;;0.32;;
79220;SDS011;72175;52.118;5.406;2023-09-19T01:23:12;2.45;;;0.22;;
79220;SDS011;72175;52.118;5.406;2023-09-19T01:26:02;2.28;;;0.30;;
79220;SDS011;72175;52.118;5.406;2023-09-19T01:31:24;2.72;;;0.70;;
79220;SDS011;72175;52.118;5.406;2023-09-19T01:34:01;2.13;;;0.22;;
79220;SDS011;72175;52.118;5.406;2023-09-19T01:36:31;1.67;;;0.20;;
79220;SDS011;72175;52.118;5.406;2023-09-19T01:39:06;2.20;;;0.57;;
79220;SDS011;72175;52.118;5.406;2023-09-19T01:44:06;2.35;;;0.55;;
79220;SDS011;72175;52.118;5.406;2023-09-19T01:46:39;2.92;;;0.35;;
79220;SDS011;72175;52.118;5.406;2023-09-19T01:54:27;2.08;;;0.30;;
79220;SDS011;72175;52.118;5.406;2023-09-19T01:59:35;2.33;;;0.40;;
79220;SDS011;72175;52.118;5.406;2023-09-19T02:02:07;3.42;;;0.32;;
79220;SDS011;72175;52.118;5.406;2023-09-19T02:04:35;2.58;;;0.32;;
79220;SDS011;72175;52.118;5.406;2023-09-19T02:07:02;2.30;;;0.40;;
79220;SDS011;72175;52.118;5.406;2023-09-19T02:09:28;2.45;;;0.43;;
79220;SDS011;72175;52.118;5.406;2023-09-19T02:11:55;2.20;;;0.50;;
79220;SDS011;72175;52.118;5.406;2023-09-19T02:14:22;2.22;;;0.40;;
79220;SDS011;72175;52.118;5.406;2023-09-19T02:16:49;2.63;;;0.43;;
79220;SDS011;72175;52.118;5.406;2023-09-19T02:19:16;3.08;;;0.38;;
79220;SDS011;72175;52.118;5.406;2023-09-19T02:21:43;2.42;;;0.20;;
79220;SDS011;72175;52.118;5.406;2023-09-19T02:24:09;1.73;;;0.20;;
79220;SDS011;72175;52.118;5.406;2023-09-19T02:26:36;2.08;;;0.20;;
79220;SDS011;72175;52.118;5.406;2023-09-19T02:29:03;2.25;;;0.20;;
79220;SDS011;72175;52.118;5.406;2023-09-19T02:31:30;2.70;;;0.57;;
79220;SDS011;72175;52.118;5.406;2023-09-19T02:33:57;1.88;;;0.30;;
79220;SDS011;72175;52.118;5.406;2023-09-19T02:36:24;2.28;;;0.30;;
79220;SDS011;72175;52.118;5.406;2023-09-19T02:38:50;2.40;;;0.30;;
79220;SDS011;72175;52.118;5.406;2023-09-19T02:41:17;1.85;;;0.20;;
79220;SDS011;72175;52.118;5.406;2023-09-19T02:43:43;2.45;;;0.30;;
79220;SDS011;72175;52.118;5.406;2023-09-19T02:46:10;2.33;;;0.30;;
79220;SDS011;72175;52.118;5.406;2023-09-19T02:48:38;2.78;;;0.30;;
79220;SDS011;72175;52.118;5.406;2023-09-19T02:51:04;2.63;;;0.60;;
79220;SDS011;72175;52.118;5.406;2023-09-19T02:53:31;3.03;;;0.30;;
79220;SDS011;72175;52.118;5.406;2023-09-19T02:55:58;2.22;;;0.32;;
79220;SDS011;72175;52.118;5.406;2023-09-19T02:58:25;3.88;;;0.70;;
79220;SDS011;72175;52.118;5.406;2023-09-19T03:00:51;2.55;;;0.30;;
79220;SDS011;72175;52.118;5.406;2023-09-19T03:03:18;2.67;;;0.20;;
79220;SDS011;72175;52.118;5.406;2023-09-19T03:05:45;2.60;;;0.30;;
79220;SDS011;72175;52.118;5.406;2023-09-19T03:08:14;1.98;;;0.25;;
79220;SDS011;72175;52.118;5.406;2023-09-19T03:10:46;2.50;;;0.63;;
79220;SDS011;72175;52.118;5.406;2023-09-19T03:13:12;1.45;;;0.20;;
79220;SDS011;72175;52.118;5.406;2023-09-19T03:15:43;3.35;;;0.20;;
79220;SDS011;72175;52.118;5.406;2023-09-19T03:18:12;2.63;;;0.40;;
79220;SDS011;72175;52.118;5.406;2023-09-19T03:20:39;2.08;;;0.30;;
79220;SDS011;72175;52.118;5.406;2023-09-19T03:23:06;2.83;;;0.38;;
79220;SDS011;72175;52.118;5.406;2023-09-19T03:25:35;2.83;;;0.63;;
79220;SDS011;72175;52.118;5.406;2023-09-19T03:28:02;1.75;;;0.30;;
79220;SDS011;72175;52.118;5.406;2023-09-19T03:30:32;2.35;;;0.50;;
79220;SDS011;72175;52.118;5.406;2023-09-19T03:32:59;2.10;;;0.30;;
79220;SDS011;72175;52.118;5.406;2023-09-19T03:35:26;3.15;;;0.38;;
79220;SDS011;72175;52.118;5.406;2023-09-19T03:37:53;1.70;;;0.20;;
79220;SDS011;72175;52.118;5.406;2023-09-19T03:40:19;3.83;;;0.50;;
79220;SDS011;72175;52.118;5.406;2023-09-19T03:42:48;2.42;;;0.25;;
79220;SDS011;72175;52.118;5.406;2023-09-19T03:45:14;3.55;;;0.50;;
79220;SDS011;72175;52.118;5.406;2023-09-19T03:47:42;2.78;;;0.52;;
79220;SDS011;72175;52.118;5.406;2023-09-19T03:50:09;2.22;;;0.20;;
79220;SDS011;72175;52.118;5.406;2023-09-19T03:52:41;2.80;;;0.43;;
79220;SDS011;72175;52.118;5.406;2023-09-19T03:55:08;3.10;;;0.40;;
79220;SDS011;72175;52.118;5.406;2023-09-19T03:57:36;2.08;;;0.30;;
79220;SDS011;72175;52.118;5.406;2023-09-19T04:00:03;2.70;;;0.20;;
79220;SDS011;72175;52.118;5.406;2023-09-19T04:02:40;2.80;;;0.52;;
79220;SDS011;72175;52.118;5.406;2023-09-19T04:05:07;1.98;;;0.30;;
79220;SDS011;72175;52.118;5.406;2023-09-19T04:07:34;2.40;;;0.30;;
79220;SDS011;72175;52.118;5.406;2023-09-19T04:10:01;2.53;;;0.30;;
79220;SDS011;72175;52.118;5.406;2023-09-19T04:12:28;3.65;;;0.20;;
79220;SDS011;72175;52.118;5.406;2023-09-19T04:14:55;3.53;;;0.50;;
79220;SDS011;72175;52.118;5.406;2023-09-19T04:17:21;2.60;;;0.47;;
79220;SDS011;72175;52.118;5.406;2023-09-19T04:19:50;2.88;;;0.30;;
79220;SDS011;72175;52.118;5.406;2023-09-19T04:22:16;2.17;;;0.35;;
79220;SDS011;72175;52.118;5.406;2023-09-19T04:24:43;2.47;;;0.20;;
79220;SDS011;72175;52.118;5.406;2023-09-19T04:27:10;1.70;;;0.45;;
79220;SDS011;72175;52.118;5.406;2023-09-19T04:29:40;3.10;;;0.30;;
79220;SDS011;72175;52.118;5.406;2023-09-19T04:32:07;2.83;;;0.40;;
79220;SDS011;72175;52.118;5.406;2023-09-19T04:34:36;2.42;;;0.28;;
79220;SDS011;72175;52.118;5.406;2023-09-19T04:37:04;2.00;;;0.35;;
79220;SDS011;72175;52.118;5.406;2023-09-19T04:39:32;2.47;;;0.47;;
79220;SDS011;72175;52.118;5.406;2023-09-19T04:42:00;3.25;;;0.40;;
79220;SDS011;72175;52.118;5.406;2023-09-19T04:44:26;2.92;;;0.40;;
79220;SDS011;72175;52.118;5.406;2023-09-19T04:46:54;2.10;;;0.20;;
79220;SDS011;72175;52.118;5.406;2023-09-19T04:49:20;3.15;;;0.50;;
79220;SDS011;72175;52.118;5.406;2023-09-19T04:51:47;2.95;;;0.30;;
79220;SDS011;72175;52.118;5.406;2023-09-19T04:54:13;2.22;;;0.20;;
79220;SDS011;72175;52.118;5.406;2023-09-19T04:56:42;2.15;;;0.30;;
79220;SDS011;72175;52.118;5.406;2023-09-19T04:59:08;2.28;;;0.50;;
79220;SDS011;72175;52.118;5.406;2023-09-19T05:01:37;2.17;;;0.28;;
79220;SDS011;72175;52.118;5.406;2023-09-19T05:04:04;2.72;;;0.30;;
79220;SDS011;72175;52.118;5.406;2023-09-19T05:06:31;3.80;;;0.38;;
79220;SDS011;72175;52.118;5.406;2023-09-19T05:08:59;2.38;;;0.40;;
79220;SDS011;72175;52.118;5.406;2023-09-19T05:11:26;1.88;;;0.20;;
79220;SDS011;72175;52.118;5.406;2023-09-19T05:13:52;2.15;;;0.20;;
79220;SDS011;72175;52.118;5.406;2023-09-19T05:16:19;2.03;;;0.20;;
79220;SDS011;72175;52.118;5.406;2023-09-19T05:18:46;2.95;;;0.22;;
79220;SDS011;72175;52.118;5.406;2023-09-19T05:21:13;2.90;;;0.52;;
79220;SDS011;72175;52.118;5.406;2023-09-19T05:23:39;2.72;;;0.30;;
79220;SDS011;72175;52.118;5.406;2023-09-19T05:26:06;3.22;;;0.32;;
79220;SDS011;72175;52.118;5.406;2023-09-19T05:28:32;2.40;;;0.30;;
79220;SDS011;72175;52.118;5.406;2023-09-19T05:31:01;2.55;;;0.32;;
79220;SDS011;72175;52.118;5.406;2023-09-19T05:33:30;2.08;;;0.20;;
79220;SDS011;72175;52.118;5.406;2023-09-19T05:35:58;3.17;;;0.30;;
79220;SDS011;72175;52.118;5.406;2023-09-19T05:38:25;3.47;;;0.52;;
79220;SDS011;72175;52.118;5.406;2023-09-19T05:40:53;2.85;;;0.40;;
79220;SDS011;72175;52.118;5.406;2023-09-19T05:43:20;1.73;;;0.25;;
79220;SDS011;72175;52.118;5.406;2023-09-19T05:45:47;3.55;;;0.40;;
79220;SDS011;72175;52.118;5.406;2023-09-19T05:48:14;1.90;;;0.30;;
79220;SDS011;72175;52.118;5.406;2023-09-19T05:50:43;2.53;;;0.50;;
79220;SDS011;72175;52.118;5.406;2023-09-19T05:53:11;2.83;;;0.30;;
79220;SDS011;72175;52.118;5.406;2023-09-19T05:55:41;2.88;;;0.30;;
79220;SDS011;72175;52.118;5.406;2023-09-19T05:58:07;2.60;;;0.57;;
79220;SDS011;72175;52.118;5.406;2023-09-19T06:00:36;2.30;;;0.28;;
79220;SDS011;72175;52.118;5.406;2023-09-19T06:03:05;2.88;;;0.20;;
79220;SDS011;72175;52.118;5.406;2023-09-19T06:05:32;1.63;;;0.20;;
79220;SDS011;72175;52.118;5.406;2023-09-19T06:07:59;3.10;;;0.50;;
79220;SDS011;72175;52.118;5.406;2023-09-19T06:10:26;2.70;;;0.55;;
79220;SDS011;72175;52.118;5.406;2023-09-19T06:12:54;3.60;;;0.30;;
79220;SDS011;72175;52.118;5.406;2023-09-19T06:15:24;3.50;;;0.30;;
79220;SDS011;72175;52.118;5.406;2023-09-19T06:17:52;3.30;;;0.65;;
79220;SDS011;72175;52.118;5.406;2023-09-19T06:20:24;2.00;;;0.32;;
79220;SDS011;72175;52.118;5.406;2023-09-19T06:22:52;2.33;;;0.30;;
79220;SDS011;72175;52.118;5.406;2023-09-19T06:25:19;2.20;;;0.40;;
79220;SDS011;72175;52.118;5.406;2023-09-19T06:27:50;2.42;;;0.30;;
79220;SDS011;72175;52.118;5.406;2023-09-19T06:30:20;3.47;;;0.60;;
79220;SDS011;72175;52.118;5.406;2023-09-19T06:32:55;2.75;;;0.40;;
79220;SDS011;72175;52.118;5.406;2023-09-19T06:35:22;2.83;;;0.47;;
79220;SDS011;72175;52.118;5.406;2023-09-19T06:37:49;4.80;;;0.22;;
79220;SDS011;72175;52.118;5.406;2023-09-19T06:40:17;2.90;;;0.20;;
79220;SDS011;72175;52.118;5.406;2023-09-19T06:42:54;3.28;;;0.30;;
79220;SDS011;72175;52.118;5.406;2023-09-19T06:45:22;5.57;;;0.30;;
79220;SDS011;72175;52.118;5.406;2023-09-19T06:47:50;4.15;;;0.60;;
79220;SDS011;72175;52.118;5.406;2023-09-19T06:50:18;4.40;;;0.50;;
79220;SDS011;72175;52.118;5.406;2023-09-19T06:52:50;8.18;;;0.60;;
79220;SDS011;72175;52.118;5.406;2023-09-19T06:57:51;5.13;;;0.68;;
79220;SDS011;72175;52.118;5.406;2023-09-19T07:00:20;4.90;;;0.68;;
79220;SDS011;72175;52.118;5.406;2023-09-19T07:03:01;5.93;;;0.50;;
79220;SDS011;72175;52.118;5.406;2023-09-19T07:05:31;4.45;;;0.40;;
79220;SDS011;72175;52.118;5.406;2023-09-19T07:07:59;4.57;;;0.47;;
79220;SDS011;72175;52.118;5.406;2023-09-19T07:10:27;2.97;;;0.40;;
79220;SDS011;72175;52.118;5.406;2023-09-19T07:13:02;5.15;;;0.40;;
79220;SDS011;72175;52.118;5.406;2023-09-19T07:15:32;5.50;;;0.55;;
79220;SDS011;72175;52.118;5.406;2023-09-19T07:18:05;3.92;;;0.35;;
79220;SDS011;72175;52.118;5.406;2023-09-19T07:20:33;3.42;;;0.40;;
79220;SDS011;72175;52.118;5.406;2023-09-19T07:23:00;5.00;;;0.57;;
79220;SDS011;72175;52.118;5.406;2023-09-19T07:25:27;4.07;;;0.40;;
79220;SDS011;72175;52.118;5.406;2023-09-19T07:27:55;3.75;;;0.28;;
79220;SDS011;72175;52.118;5.406;2023-09-19T07:30:22;4.25;;;0.40;;
79220;SDS011;72175;52.118;5.406;2023-09-19T07:32:50;6.72;;;0.40;;
79220;SDS011;72175;52.118;5.406;2023-09-19T07:35:17;5.95;;;0.88;;
79220;SDS011;72175;52.118;5.406;2023-09-19T07:37:46;5.45;;;0.40;;
79220;SDS011;72175;52.118;5.406;2023-09-19T07:40:18;4.07;;;0.90;;
79220;SDS011;72175;52.118;5.406;2023-09-19T07:42:47;3.72;;;0.40;;
79220;SDS011;72175;52.118;5.406;2023-09-19T07:45:14;3.70;;;0.32;;
79220;SDS011;72175;52.118;5.406;2023-09-19T07:47:43;6.68;;;0.63;;
79220;SDS011;72175;52.118;5.406;2023-09-19T07:50:12;4.45;;;0.40;;
79220;SDS011;72175;52.118;5.406;2023-09-19T07:52:39;5.72;;;0.40;;
79220;SDS011;72175;52.118;5.406;2023-09-19T07:55:06;7.72;;;1.67;;
79220;SDS011;72175;52.118;5.406;2023-09-19T07:57:37;5.50;;;0.85;;
79220;SDS011;72175;52.118;5.406;2023-09-19T08:00:04;8.25;;;0.55;;
79220;SDS011;72175;52.118;5.406;2023-09-19T08:02:35;6.43;;;0.95;;
79220;SDS011;72175;52.118;5.406;2023-09-19T08:05:05;3.88;;;0.60;;
79220;SDS011;72175;52.118;5.406;2023-09-19T08:07:34;5.72;;;0.70;;
79220;SDS011;72175;52.118;5.406;2023-09-19T08:10:03;6.47;;;0.63;;
79220;SDS011;72175;52.118;5.406;2023-09-19T08:12:30;6.00;;;0.40;;
79220;SDS011;72175;52.118;5.406;2023-09-19T08:14:57;7.60;;;0.60;;
79220;SDS011;72175;52.118;5.406;2023-09-19T08:17:23;6.65;;;0.63;;
79220;SDS011;72175;52.118;5.406;2023-09-19T08:19:53;5.45;;;0.65;;
79220;SDS011;72175;52.118;5.406;2023-09-19T08:22:20;4.50;;;0.45;;
79220;SDS011;72175;52.118;5.406;2023-09-19T08:24:48;5.60;;;0.50;;
79220;SDS011;72175;52.118;5.406;2023-09-19T08:27:14;6.80;;;0.60;;
79220;SDS011;72175;52.118;5.406;2023-09-19T08:29:44;7.65;;;0.68;;
79220;SDS011;72175;52.118;5.406;2023-09-19T08:32:12;4.22;;;0.40;;
79220;SDS011;72175;52.118;5.406;2023-09-19T08:34:39;4.85;;;0.40;;
79220;SDS011;72175;52.118;5.406;2023-09-19T08:37:05;5.63;;;0.47;;
79220;SDS011;72175;52.118;5.406;2023-09-19T08:39:32;6.97;;;0.55;;
79220;SDS011;72175;52.118;5.406;2023-09-19T08:42:00;8.98;;;0.98;;
79220;SDS011;72175;52.118;5.406;2023-09-19T08:44:27;11.35;;;0.95;;
79220;SDS011;72175;52.118;5.406;2023-09-19T08:47:00;10.32;;;0.90;;
79220;SDS011;72175;52.118;5.406;2023-09-19T08:49:48;8.30;;;0.95;;
79220;SDS011;72175;52.118;5.406;2023-09-19T08:52:27;10.23;;;1.02;;
79220;SDS011;72175;52.118;5.406;2023-09-19T08:55:01;6.30;;;0.60;;
79220;SDS011;72175;52.118;5.406;2023-09-19T08:57:34;6.20;;;0.73;;
79220;SDS011;72175;52.118;5.406;2023-09-19T09:00:08;11.90;;;1.25;;
79220;SDS011;72175;52.118;5.406;2023-09-19T09:02:39;10.32;;;0.95;;
79220;SDS011;72175;52.118;5.406;2023-09-19T09:05:08;5.93;;;0.80;;
79220;SDS011;72175;52.118;5.406;2023-09-19T09:07:37;10.50;;;1.75;;
79220;SDS011;72175;52.118;5.406;2023-09-19T09:10:05;8.63;;;0.85;;
79220;SDS011;72175;52.118;5.406;2023-09-19T09:12:32;7.28;;;0.77;;
79220;SDS011;72175;52.118;5.406;2023-09-19T09:14:59;10.82;;;0.75;;
79220;SDS011;72175;52.118;5.406;2023-09-19T09:17:26;7.78;;;1.05;;
79220;SDS011;72175;52.118;5.406;2023-09-19T09:19:54;7.47;;;1.33;;
79220;SDS011;72175;52.118;5.406;2023-09-19T09:22:21;6.78;;;0.77;;
79220;SDS011;72175;52.118;5.406;2023-09-19T09:24:57;9.57;;;1.02;;
79220;SDS011;72175;52.118;5.406;2023-09-19T09:27:33;18.98;;;1.05;;
79220;SDS011;72175;52.118;5.406;2023-09-19T09:30:04;7.82;;;0.52;;
79220;SDS011;72175;52.118;5.406;2023-09-19T09:32:33;6.22;;;0.60;;
79220;SDS011;72175;52.118;5.406;2023-09-19T09:35:13;12.30;;;1.73;;
79220;SDS011;72175;52.118;5.406;2023-09-19T09:37:43;9.20;;;0.90;;
79220;SDS011;72175;52.118;5.406;2023-09-19T09:40:10;7.43;;;0.70;;
79220;SDS011;72175;52.118;5.406;2023-09-19T09:42:48;10.63;;;1.20;;
79220;SDS011;72175;52.118;5.406;2023-09-19T09:48:04;11.50;;;0.90;;
79220;SDS011;72175;52.118;5.406;2023-09-19T09:50:48;10.68;;;0.90;;
79220;SDS011;72175;52.118;5.406;2023-09-19T09:56:08;7.55;;;0.80;;
79220;SDS011;72175;52.118;5.406;2023-09-19T10:01:15;11.68;;;0.90;;
79220;SDS011;72175;52.118;5.406;2023-09-19T10:03:43;11.32;;;0.73;;
79220;SDS011;72175;52.118;5.406;2023-09-19T10:06:12;6.07;;;0.70;;
79220;SDS011;72175;52.118;5.406;2023-09-19T10:09:08;7.65;;;1.52;;
79220;SDS011;72175;52.118;5.406;2023-09-19T10:11:42;10.95;;;0.75;;
79220;SDS011;72175;52.118;5.406;2023-09-19T10:14:26;6.38;;;0.70;;
79220;SDS011;72175;52.118;5.406;2023-09-19T10:16:59;6.43;;;1.38;;
79220;SDS011;72175;52.118;5.406;2023-09-19T10:19:33;9.15;;;1.33;;
79220;SDS011;72175;52.118;5.406;2023-09-19T10:22:04;6.22;;;0.57;;
79220;SDS011;72175;52.118;5.406;2023-09-19T10:24:33;5.65;;;0.47;;
79220;SDS011;72175;52.118;5.406;2023-09-19T10:27:17;9.55;;;0.70;;
79220;SDS011;72175;52.118;5.406;2023-09-19T10:29:46;8.07;;;0.98;;
79220;SDS011;72175;52.118;5.406;2023-09-19T10:32:17;4.60;;;0.50;;
79220;SDS011;72175;52.118;5.406;2023-09-19T10:34:46;11.55;;;0.80;;
79220;SDS011;72175;52.118;5.406;2023-09-19T10:37:15;8.20;;;1.20;;
79220;SDS011;72175;52.118;5.406;2023-09-19T10:39:46;7.93;;;0.80;;
79220;SDS011;72175;52.118;5.406;2023-09-19T10:42:16;12.05;;;0.98;;
79220;SDS011;72175;52.118;5.406;2023-09-19T10:47:20;10.73;;;0.98;;
79220;SDS011;72175;52.118;5.406;2023-09-19T10:49:52;10.75;;;1.20;;
79220;SDS011;72175;52.118;5.406;2023-09-19T10:52:21;11.20;;;1.02;;
79220;SDS011;72175;52.118;5.406;2023-09-19T10:54:52;7.95;;;0.70;;
79220;SDS011;72175;52.118;5.406;2023-09-19T10:57:24;8.85;;;0.60;;
79220;SDS011;72175;52.118;5.406;2023-09-19T11:00:01;8.73;;;0.95;;
79220;SDS011;72175;52.118;5.406;2023-09-19T11:05:38;7.20;;;0.70;;
79220;SDS011;72175;52.118;5.406;2023-09-19T11:08:07;12.00;;;0.98;;
79220;SDS011;72175;52.118;5.406;2023-09-19T11:10:44;6.82;;;1.05;;
79220;SDS011;72175;52.118;5.406;2023-09-19T11:13:24;7.68;;;0.90;;
79220;SDS011;72175;52.118;5.406;2023-09-19T11:26:49;7.28;;;1.35;;
79220;SDS011;72175;52.118;5.406;2023-09-19T11:29:28;7.00;;;0.77;;
79220;SDS011;72175;52.118;5.406;2023-09-19T11:31:56;8.70;;;0.95;;
79220;SDS011;72175;52.118;5.406;2023-09-19T11:34:42;7.00;;;0.90;;
79220;SDS011;72175;52.118;5.406;2023-09-19T11:40:05;9.50;;;1.23;;
79220;SDS011;72175;52.118;5.406;2023-09-19T11:42:46;6.10;;;0.55;;
79220;SDS011;72175;52.118;5.406;2023-09-19T11:48:08;5.25;;;0.82;;
79220;SDS011;72175;52.118;5.406;2023-09-19T11:50:39;7.70;;;0.82;;
79220;SDS011;72175;52.118;5.406;2023-09-19T11:53:10;7.63;;;1.15;;
79220;SDS011;72175;52.118;5.406;2023-09-19T11:55:40;6.63;;;0.50;;
79220;SDS011;72175;52.118;5.406;2023-09-19T11:58:09;6.82;;;0.82;;
79220;SDS011;72175;52.118;5.406;2023-09-19T12:00:37;4.93;;;0.80;;
79220;SDS011;72175;52.118;5.406;2023-09-19T12:03:09;3.45;;;0.73;;
79220;SDS011;72175;52.118;5.406;2023-09-19T12:05:49;3.58;;;0.73;;
79220;SDS011;72175;52.118;5.406;2023-09-19T12:08:15;5.20;;;0.50;;
79220;SDS011;72175;52.118;5.406;2023-09-19T12:10:49;5.68;;;0.55;;
79220;SDS011;72175;52.118;5.406;2023-09-19T12:13:18;5.53;;;0.70;;
79220;SDS011;72175;52.118;5.406;2023-09-19T12:15:45;4.10;;;0.93;;
79220;SDS011;72175;52.118;5.406;2023-09-19T12:18:29;5.82;;;0.57;;
79220;SDS011;72175;52.118;5.406;2023-09-19T12:20:57;10.57;;;0.70;;
79220;SDS011;72175;52.118;5.406;2023-09-19T12:25:56;7.55;;;0.70;;
79220;SDS011;72175;52.118;5.406;2023-09-19T12:28:27;7.93;;;0.82;;
79220;SDS011;72175;52.118;5.406;2023-09-19T12:31:05;7.50;;;0.90;;
79220;SDS011;72175;52.118;5.406;2023-09-19T12:33:33;8.27;;;0.73;;
79220;SDS011;72175;52.118;5.406;2023-09-19T12:36:19;11.07;;;0.75;;
79220;SDS011;72175;52.118;5.406;2023-09-19T12:38:51;8.13;;;0.65;;
79220;SDS011;72175;52.118;5.406;2023-09-19T12:41:20;9.32;;;1.67;;
79220;SDS011;72175;52.118;5.406;2023-09-19T12:43:48;9.02;;;0.63;;
79220;SDS011;72175;52.118;5.406;2023-09-19T12:46:15;5.05;;;0.60;;
79220;SDS011;72175;52.118;5.406;2023-09-19T12:49:19;8.38;;;0.75;;
79220;SDS011;72175;52.118;5.406;2023-09-19T12:51:47;5.22;;;0.50;;
79220;SDS011;72175;52.118;5.406;2023-09-19T12:54:15;5.30;;;0.70;;
79220;SDS011;72175;52.118;5.406;2023-09-19T12:56:43;5.55;;;0.90;;
79220;SDS011;72175;52.118;5.406;2023-09-19T12:59:14;4.72;;;0.40;;
79220;SDS011;72175;52.118;5.406;2023-09-19T13:01:42;4.95;;;0.57;;
79220;SDS011;72175;52.118;5.406;2023-09-19T13:04:20;6.03;;;1.00;;
79220;SDS011;72175;52.118;5.406;2023-09-19T13:06:57;6.10;;;0.43;;
79220;SDS011;72175;52.118;5.406;2023-09-19T13:09:27;5.00;;;0.70;;
79220;SDS011;72175;52.118;5.406;2023-09-19T13:12:01;5.78;;;0.82;;
79220;SDS011;72175;52.118;5.406;2023-09-19T13:14:29;5.70;;;0.82;;
79220;SDS011;72175;52.118;5.406;2023-09-19T13:17:04;8.45;;;0.80;;
79220;SDS011;72175;52.118;5.406;2023-09-19T13:19:46;13.45;;;0.70;;
79220;SDS011;72175;52.118;5.406;2023-09-19T13:22:41;3.83;;;0.30;;
79220;SDS011;72175;52.118;5.406;2023-09-19T13:25:11;5.65;;;0.55;;
79220;SDS011;72175;52.118;5.406;2023-09-19T13:27:46;4.45;;;0.60;;
79220;SDS011;72175;52.118;5.406;2023-09-19T13:30:18;4.32;;;0.40;;
79220;SDS011;72175;52.118;5.406;2023-09-19T13:32:46;7.15;;;0.57;;
79220;SDS011;72175;52.118;5.406;2023-09-19T13:35:14;6.75;;;0.30;;
79220;SDS011;72175;52.118;5.406;2023-09-19T13:37:42;5.55;;;0.40;;
79220;SDS011;72175;52.118;5.406;2023-09-19T13:40:14;6.75;;;0.73;;
79220;SDS011;72175;52.118;5.406;2023-09-19T13:42:42;4.68;;;0.50;;
79220;SDS011;72175;52.118;5.406;2023-09-19T13:45:09;5.32;;;0.65;;
79220;SDS011;72175;52.118;5.406;2023-09-19T13:47:38;5.22;;;0.40;;
79220;SDS011;72175;52.118;5.406;2023-09-19T13:50:06;4.43;;;0.50;;
79220;SDS011;72175;52.118;5.406;2023-09-19T13:52:34;5.72;;;0.40;;
79220;SDS011;72175;52.118;5.406;2023-09-19T13:55:00;3.70;;;0.30;;
79220;SDS011;72175;52.118;5.406;2023-09-19T13:57:27;4.63;;;0.45;;
79220;SDS011;72175;52.118;5.406;2023-09-19T13:59:53;4.38;;;0.40;;
79220;SDS011;72175;52.118;5.406;2023-09-19T14:02:21;3.05;;;0.30;;
79220;SDS011;72175;52.118;5.406;2023-09-19T14:04:51;6.57;;;0.65;;
79220;SDS011;72175;52.118;5.406;2023-09-19T14:07:19;5.25;;;0.50;;
79220;SDS011;72175;52.118;5.406;2023-09-19T14:09:46;3.63;;;0.35;;
79220;SDS011;72175;52.118;5.406;2023-09-19T14:12:13;8.07;;;0.47;;
79220;SDS011;72175;52.118;5.406;2023-09-19T14:14:41;4.05;;;0.38;;
79220;SDS011;72175;52.118;5.406;2023-09-19T14:17:08;4.53;;;0.40;;
79220;SDS011;72175;52.118;5.406;2023-09-19T14:19:37;3.55;;;0.80;;
79220;SDS011;72175;52.118;5.406;2023-09-19T14:22:05;5.15;;;0.40;;
79220;SDS011;72175;52.118;5.406;2023-09-19T14:24:35;7.57;;;0.50;;
79220;SDS011;72175;52.118;5.406;2023-09-19T14:27:04;5.45;;;0.47;;
79220;SDS011;72175;52.118;5.406;2023-09-19T14:29:32;8.30;;;1.20;;
79220;SDS011;72175;52.118;5.406;2023-09-19T14:32:00;9.52;;;0.65;;
79220;SDS011;72175;52.118;5.406;2023-09-19T14:34:27;6.68;;;0.73;;
79220;SDS011;72175;52.118;5.406;2023-09-19T14:36:54;6.60;;;0.57;;
79220;SDS011;72175;52.118;5.406;2023-09-19T14:39:23;6.15;;;0.40;;
79220;SDS011;72175;52.118;5.406;2023-09-19T14:41:49;6.85;;;0.50;;
79220;SDS011;72175;52.118;5.406;2023-09-19T14:44:19;8.05;;;1.10;;
79220;SDS011;72175;52.118;5.406;2023-09-19T14:46:46;8.82;;;0.60;;
79220;SDS011;72175;52.118;5.406;2023-09-19T14:49:13;6.05;;;0.50;;
79220;SDS011;72175;52.118;5.406;2023-09-19T14:51:42;11.35;;;0.80;;
79220;SDS011;72175;52.118;5.406;2023-09-19T14:54:13;9.80;;;0.52;;
79220;SDS011;72175;52.118;5.406;2023-09-19T14:56:43;6.55;;;0.77;;
79220;SDS011;72175;52.118;5.406;2023-09-19T14:59:10;6.13;;;0.50;;
79220;SDS011;72175;52.118;5.406;2023-09-19T15:01:37;8.40;;;0.52;;
79220;SDS011;72175;52.118;5.406;2023-09-19T15:04:05;7.50;;;0.77;;
79220;SDS011;72175;52.118;5.406;2023-09-19T15:06:32;8.07;;;0.55;;
79220;SDS011;72175;52.118;5.406;2023-09-19T15:08:58;8.50;;;0.80;;
79220;SDS011;72175;52.118;5.406;2023-09-19T15:11:25;3.75;;;0.35;;
79220;SDS011;72175;52.118;5.406;2023-09-19T15:13:52;6.32;;;0.43;;
79220;SDS011;72175;52.118;5.406;2023-09-19T15:16:20;7.10;;;0.50;;
79220;SDS011;72175;52.118;5.406;2023-09-19T15:18:47;7.63;;;0.60;;
79220;SDS011;72175;52.118;5.406;2023-09-19T15:21:14;3.95;;;0.35;;
79220;SDS011;72175;52.118;5.406;2023-09-19T15:23:41;4.50;;;0.50;;
79220;SDS011;72175;52.118;5.406;2023-09-19T15:26:12;7.55;;;0.50;;
79220;SDS011;72175;52.118;5.406;2023-09-19T15:28:40;8.52;;;0.60;;
79220;SDS011;72175;52.118;5.406;2023-09-19T15:31:08;5.53;;;0.80;;
79220;SDS011;72175;52.118;5.406;2023-09-19T15:33:37;3.70;;;1.20;;
79220;SDS011;72175;52.118;5.406;2023-09-19T15:36:04;7.40;;;0.40;;
79220;SDS011;72175;52.118;5.406;2023-09-19T15:38:32;4.57;;;0.20;;
79220;SDS011;72175;52.118;5.406;2023-09-19T15:41:26;3.17;;;0.77;;
79220;SDS011;72175;52.118;5.406;2023-09-19T15:43:55;4.95;;;0.60;;
79220;SDS011;72175;52.118;5.406;2023-09-19T15:46:22;4.00;;;0.93;;
79220;SDS011;72175;52.118;5.406;2023-09-19T15:48:49;3.35;;;0.38;;
79220;SDS011;72175;52.118;5.406;2023-09-19T15:51:16;7.55;;;1.75;;
79220;SDS011;72175;52.118;5.406;2023-09-19T15:53:52;3.90;;;0.52;;
79220;SDS011;72175;52.118;5.406;2023-09-19T15:56:20;7.05;;;0.50;;
79220;SDS011;72175;52.118;5.406;2023-09-19T15:58:50;4.47;;;0.40;;